sensor_id;sensor_type;location;lat;lon;timestamp;pressure;altitude;pressure_sealevel;temperature;humidity
72802;BME280;61891;55.818;37.084;2023-05-22T00:00:42;100191.94;;;10.11;59.90
72802;BME280;61891;55.818;37.084;2023-05-22T00:03:08;100223.16;;;10.26;60.29
72802;BME280;61891;55.818;37.084;2023-05-22T00:05:35;100216.63;;;10.21;60.37
72802;BME280;61891;55.818;37.084;2023-05-22T00:08:04;100214.66;;;10.23;59.97
72802;BME280;61891;55.818;37.084;2023-05-22T00:10:30;100213.81;;;10.22;60.08
72802;BME280;61891;55.818;37.084;2023-05-22T00:12:56;100220.78;;;10.23;60.11
72802;BME280;61891;55.818;37.084;2023-05-22T00:15:22;100225.41;;;10.21;60.30
72802;BME280;61891;55.818;37.084;2023-05-22T00:17:47;100222.59;;;10.23;60.45
72802;BME280;61891;55.818;37.084;2023-05-22T00:20:14;100214.81;;;10.21;59.95
72802;BME280;61891;55.818;37.084;2023-05-22T00:22:40;100212.97;;;10.22;60.08
72802;BME280;61891;55.818;37.084;2023-05-22T00:25:07;100215.06;;;10.18;59.91
72802;BME280;61891;55.818;37.084;2023-05-22T00:27:33;100215.34;;;10.15;59.76
72802;BME280;61891;55.818;37.084;2023-05-22T00:29:59;100205.75;;;10.05;60.05
72802;BME280;61891;55.818;37.084;2023-05-22T00:32:25;100224.97;;;10.16;60.86
72802;BME280;61891;55.818;37.084;2023-05-22T00:34:51;100206.44;;;10.07;60.38
72802;BME280;61891;55.818;37.084;2023-05-22T00:37:17;100214.25;;;10.08;60.30
72802;BME280;61891;55.818;37.084;2023-05-22T00:39:44;100209.22;;;10.05;60.46
72802;BME280;61891;55.818;37.084;2023-05-22T00:42:10;100202.25;;;10.04;60.15
72802;BME280;61891;55.818;37.084;2023-05-22T00:44:36;100221.06;;;10.11;60.21
72802;BME280;61891;55.818;37.084;2023-05-22T00:47:02;100226.22;;;10.12;60.35
72802;BME280;61891;55.818;37.084;2023-05-22T00:49:28;100224.56;;;10.11;60.18
72802;BME280;61891;55.818;37.084;2023-05-22T00:51:54;100210.50;;;10.01;60.18
72802;BME280;61891;55.818;37.084;2023-05-22T00:54:20;100223.31;;;10.06;60.14
72802;BME280;61891;55.818;37.084;2023-05-22T00:56:46;100213.97;;;10.01;60.05
72802;BME280;61891;55.818;37.084;2023-05-22T00:59:13;100218.72;;;9.98;60.13
72802;BME280;61891;55.818;37.084;2023-05-22T01:01:40;100189.22;;;9.74;60.42
72802;BME280;61891;55.818;37.084;2023-05-22T01:04:11;100216.34;;;9.95;60.51
72802;BME280;61891;55.818;37.084;2023-05-22T01:06:37;100199.38;;;9.88;60.19
72802;BME280;61891;55.818;37.084;2023-05-22T01:09:03;100223.72;;;10.01;59.92
72802;BME280;61891;55.818;37.084;2023-05-22T01:11:39;100184.03;;;9.82;60.74
72802;BME280;61891;55.818;37.084;2023-05-22T01:14:13;100227.78;;;10.05;60.50
72802;BME280;61891;55.818;37.084;2023-05-22T01:17:27;100234.75;;;10.06;61.22
72802;BME280;61891;55.818;37.084;2023-05-22T01:25:55;100226.38;;;10.11;60.92
72802;BME280;61891;55.818;37.084;2023-05-22T01:31:42;100226.50;;;10.19;60.99
72802;BME280;61891;55.818;37.084;2023-05-22T01:34:10;100216.03;;;10.17;61.06
72802;BME280;61891;55.818;37.084;2023-05-22T01:36:38;100222.47;;;10.24;60.84
72802;BME280;61891;55.818;37.084;2023-05-22T01:39:06;100225.50;;;10.29;61.06
72802;BME280;61891;55.818;37.084;2023-05-22T01:41:33;100225.50;;;10.29;60.79
72802;BME280;61891;55.818;37.084;2023-05-22T01:44:00;100211.03;;;10.24;60.83
72802;BME280;61891;55.818;37.084;2023-05-22T01:46:28;100229.69;;;10.32;60.83
72802;BME280;61891;55.818;37.084;2023-05-22T01:48:55;100224.38;;;10.32;61.34
72802;BME280;61891;55.818;37.084;2023-05-22T01:54:05;100220.19;;;10.39;61.59
72802;BME280;61891;55.818;37.084;2023-05-22T01:56:37;100173.09;;;10.14;61.06
72802;BME280;61891;55.818;37.084;2023-05-22T01:59:42;100224.53;;;10.40;61.22
72802;BME280;61891;55.818;37.084;2023-05-22T02:02:06;100210.03;;;10.34;61.13
72802;BME280;61891;55.818;37.084;2023-05-22T02:04:36;100216.00;;;10.37;61.14
72802;BME280;61891;55.818;37.084;2023-05-22T02:07:03;100228.13;;;10.39;61.10
72802;BME280;61891;55.818;37.084;2023-05-22T02:09:29;100211.28;;;10.30;61.04
72802;BME280;61891;55.818;37.084;2023-05-22T02:11:58;100229.13;;;10.38;61.06
72802;BME280;61891;55.818;37.084;2023-05-22T02:14:26;100221.31;;;10.37;60.79
72802;BME280;61891;55.818;37.084;2023-05-22T02:16:53;100207.81;;;10.30;61.10
72802;BME280;61891;55.818;37.084;2023-05-22T02:19:19;100221.75;;;10.42;61.09
72802;BME280;61891;55.818;37.084;2023-05-22T02:22:05;100212.13;;;10.41;61.39
72802;BME280;61891;55.818;37.084;2023-05-22T02:24:35;100217.97;;;10.44;61.39
72802;BME280;61891;55.818;37.084;2023-05-22T02:27:01;100206.69;;;10.42;61.38
72802;BME280;61891;55.818;37.084;2023-05-22T02:29:28;100220.59;;;10.54;61.32
72802;BME280;61891;55.818;37.084;2023-05-22T02:31:54;100226.56;;;10.56;61.93
72802;BME280;61891;55.818;37.084;2023-05-22T02:34:20;100227.25;;;10.58;61.36
72802;BME280;61891;55.818;37.084;2023-05-22T02:36:46;100226.00;;;10.62;61.24
72802;BME280;61891;55.818;37.084;2023-05-22T02:39:12;100214.41;;;10.63;61.88
72802;BME280;61891;55.818;37.084;2023-05-22T02:41:38;100220.53;;;10.63;61.36
72802;BME280;61891;55.818;37.084;2023-05-22T02:44:04;100222.50;;;10.61;61.14
72802;BME280;61891;55.818;37.084;2023-05-22T02:46:29;100198.53;;;10.53;61.17
72802;BME280;61891;55.818;37.084;2023-05-22T02:48:55;100208.03;;;10.56;60.98
72802;BME280;61891;55.818;37.084;2023-05-22T02:51:21;100223.75;;;10.67;61.27
72802;BME280;61891;55.818;37.084;2023-05-22T02:53:47;100225.41;;;10.68;61.21
72802;BME280;61891;55.818;37.084;2023-05-22T02:56:12;100234.59;;;10.74;60.98
72802;BME280;61891;55.818;37.084;2023-05-22T02:58:38;100226.50;;;10.75;61.20
72802;BME280;61891;55.818;37.084;2023-05-22T03:01:04;100196.38;;;10.67;61.22
72802;BME280;61891;55.818;37.084;2023-05-22T03:03:34;100218.63;;;10.83;61.19
72802;BME280;61891;55.818;37.084;2023-05-22T03:05:59;100227.09;;;10.96;61.28
72802;BME280;61891;55.818;37.084;2023-05-22T03:08:27;100226.63;;;11.01;61.20
72802;BME280;61891;55.818;37.084;2023-05-22T03:10:57;100224.66;;;11.03;61.38
72802;BME280;61891;55.818;37.084;2023-05-22T03:13:24;100227.31;;;11.03;61.36
72802;BME280;61891;55.818;37.084;2023-05-22T03:15:50;100228.84;;;11.06;61.45
72802;BME280;61891;55.818;37.084;2023-05-22T03:18:16;100229.22;;;11.11;61.34
72802;BME280;61891;55.818;37.084;2023-05-22T03:20:42;100233.66;;;11.20;61.53
72802;BME280;61891;55.818;37.084;2023-05-22T03:23:10;100146.78;;;10.77;61.39
72802;BME280;61891;55.818;37.084;2023-05-22T03:25:36;100193.38;;;11.07;61.08
72802;BME280;61891;55.818;37.084;2023-05-22T03:28:01;100228.50;;;11.36;61.36
72802;BME280;61891;55.818;37.084;2023-05-22T03:30:31;100225.69;;;11.38;61.10
72802;BME280;61891;55.818;37.084;2023-05-22T03:33:08;100210.00;;;11.26;61.22
72802;BME280;61891;55.818;37.084;2023-05-22T03:35:34;100235.34;;;11.39;61.02
72802;BME280;61891;55.818;37.084;2023-05-22T03:38:00;100236.69;;;11.43;61.89
72802;BME280;61891;55.818;37.084;2023-05-22T03:40:26;100235.88;;;11.42;61.21
72802;BME280;61891;55.818;37.084;2023-05-22T03:42:51;100221.22;;;11.38;61.27
72802;BME280;61891;55.818;37.084;2023-05-22T03:45:17;100229.13;;;11.48;61.33
72802;BME280;61891;55.818;37.084;2023-05-22T03:47:43;100219.63;;;11.45;61.13
72802;BME280;61891;55.818;37.084;2023-05-22T03:50:09;100212.34;;;11.47;61.11
72802;BME280;61891;55.818;37.084;2023-05-22T03:52:35;100233.75;;;11.63;61.38
72802;BME280;61891;55.818;37.084;2023-05-22T03:55:03;100229.50;;;11.71;61.09
72802;BME280;61891;55.818;37.084;2023-05-22T03:57:29;100235.59;;;11.81;60.86
72802;BME280;61891;55.818;37.084;2023-05-22T03:59:55;100226.31;;;11.85;61.04
72802;BME280;61891;55.818;37.084;2023-05-22T04:02:20;100223.44;;;11.96;61.52
72802;BME280;61891;55.818;37.084;2023-05-22T04:04:46;100225.69;;;12.09;61.33
72802;BME280;61891;55.818;37.084;2023-05-22T04:07:12;100212.91;;;12.12;61.18
72802;BME280;61891;55.818;37.084;2023-05-22T04:09:39;100228.19;;;12.36;61.01
72802;BME280;61891;55.818;37.084;2023-05-22T04:12:06;100217.06;;;12.41;60.94
72802;BME280;61891;55.818;37.084;2023-05-22T04:14:31;100217.16;;;12.57;61.18
72802;BME280;61891;55.818;37.084;2023-05-22T04:17:00;100235.06;;;12.81;61.16
72802;BME280;61891;55.818;37.084;2023-05-22T04:19:27;100237.94;;;12.96;60.90
72802;BME280;61891;55.818;37.084;2023-05-22T04:21:56;100226.38;;;13.13;60.53
72802;BME280;61891;55.818;37.084;2023-05-22T04:24:22;100239.09;;;13.35;60.43
72802;BME280;61891;55.818;37.084;2023-05-22T04:26:48;100202.78;;;13.26;60.33
72802;BME280;61891;55.818;37.084;2023-05-22T04:29:14;100230.47;;;13.58;60.15
72802;BME280;61891;55.818;37.084;2023-05-22T04:31:43;100233.66;;;13.77;60.04
72802;BME280;61891;55.818;37.084;2023-05-22T04:34:10;100230.50;;;13.90;59.84
72802;BME280;61891;55.818;37.084;2023-05-22T04:36:39;100194.84;;;13.75;59.56
72802;BME280;61891;55.818;37.084;2023-05-22T04:39:05;100228.16;;;14.11;59.23
72802;BME280;61891;55.818;37.084;2023-05-22T04:41:31;100237.47;;;14.24;58.79
72802;BME280;61891;55.818;37.084;2023-05-22T04:43:58;100232.09;;;14.40;58.97
72802;BME280;61891;55.818;37.084;2023-05-22T04:46:25;100235.75;;;14.55;58.72
72802;BME280;61891;55.818;37.084;2023-05-22T04:48:50;100228.53;;;14.72;58.41
72802;BME280;61891;55.818;37.084;2023-05-22T04:51:17;100216.03;;;14.72;58.12
72802;BME280;61891;55.818;37.084;2023-05-22T04:53:44;100223.97;;;14.89;57.78
72802;BME280;61891;55.818;37.084;2023-05-22T04:56:10;100234.41;;;15.06;57.63
72802;BME280;61891;55.818;37.084;2023-05-22T04:58:37;100232.22;;;15.10;57.22
72802;BME280;61891;55.818;37.084;2023-05-22T05:01:04;100240.53;;;15.15;57.20
72802;BME280;61891;55.818;37.084;2023-05-22T05:03:30;100243.50;;;15.20;56.83
72802;BME280;61891;55.818;37.084;2023-05-22T05:06:00;100234.31;;;15.23;56.62
72802;BME280;61891;55.818;37.084;2023-05-22T05:08:26;100231.00;;;15.21;56.84
72802;BME280;61891;55.818;37.084;2023-05-22T05:10:52;100244.28;;;15.29;56.78
72802;BME280;61891;55.818;37.084;2023-05-22T05:13:17;100247.78;;;15.29;56.89
72802;BME280;61891;55.818;37.084;2023-05-22T05:15:44;100251.66;;;15.27;57.02
72802;BME280;61891;55.818;37.084;2023-05-22T05:18:10;100248.81;;;15.28;56.95
72802;BME280;61891;55.818;37.084;2023-05-22T05:20:36;100236.50;;;15.19;56.89
72802;BME280;61891;55.818;37.084;2023-05-22T05:23:02;100236.63;;;15.26;57.18
72802;BME280;61891;55.818;37.084;2023-05-22T05:25:28;100204.19;;;15.06;57.17
72802;BME280;61891;55.818;37.084;2023-05-22T05:27:54;100224.47;;;15.23;57.33
72802;BME280;61891;55.818;37.084;2023-05-22T05:30:21;100211.31;;;15.13;57.50
72802;BME280;61891;55.818;37.084;2023-05-22T05:33:07;100239.44;;;15.32;57.22
72802;BME280;61891;55.818;37.084;2023-05-22T05:35:41;100235.41;;;15.36;57.16
72802;BME280;61891;55.818;37.084;2023-05-22T05:38:09;100240.03;;;15.42;57.15
72802;BME280;61891;55.818;37.084;2023-05-22T05:40:37;100227.03;;;15.39;56.91
72802;BME280;61891;55.818;37.084;2023-05-22T05:43:05;100237.97;;;15.53;56.92
72802;BME280;61891;55.818;37.084;2023-05-22T05:45:33;100237.63;;;15.56;56.90
72802;BME280;61891;55.818;37.084;2023-05-22T05:48:00;100234.94;;;15.56;56.90
72802;BME280;61891;55.818;37.084;2023-05-22T05:50:26;100214.31;;;15.41;56.63
72802;BME280;61891;55.818;37.084;2023-05-22T05:52:53;100225.66;;;15.43;56.56
72802;BME280;61891;55.818;37.084;2023-05-22T05:55:19;100228.34;;;15.43;57.11
72802;BME280;61891;55.818;37.084;2023-05-22T05:57:46;100230.31;;;15.49;57.14
72802;BME280;61891;55.818;37.084;2023-05-22T06:00:18;100222.13;;;15.51;57.00
72802;BME280;61891;55.818;37.084;2023-05-22T06:02:47;100228.13;;;15.53;56.60
72802;BME280;61891;55.818;37.084;2023-05-22T06:05:33;100225.78;;;15.50;56.99
72802;BME280;61891;55.818;37.084;2023-05-22T06:08:10;100231.94;;;15.59;56.83
72802;BME280;61891;55.818;37.084;2023-05-22T06:10:39;100242.72;;;15.73;56.87
72802;BME280;61891;55.818;37.084;2023-05-22T06:13:34;100244.69;;;15.79;57.19
72802;BME280;61891;55.818;37.084;2023-05-22T06:16:00;100248.56;;;15.77;56.89
72802;BME280;61891;55.818;37.084;2023-05-22T06:18:26;100235.53;;;15.74;57.23
72802;BME280;61891;55.818;37.084;2023-05-22T06:20:52;100228.72;;;15.71;57.53
72802;BME280;61891;55.818;37.084;2023-05-22T06:23:18;100244.50;;;15.81;57.05
72802;BME280;61891;55.818;37.084;2023-05-22T06:25:45;100189.22;;;15.51;57.53
72802;BME280;61891;55.818;37.084;2023-05-22T06:28:11;100231.13;;;15.81;57.41
72802;BME280;61891;55.818;37.084;2023-05-22T06:30:38;100252.75;;;15.94;58.04
72802;BME280;61891;55.818;37.084;2023-05-22T06:33:04;100225.50;;;15.76;57.26
72802;BME280;61891;55.818;37.084;2023-05-22T06:35:30;100245.81;;;15.85;58.12
72802;BME280;61891;55.818;37.084;2023-05-22T06:37:55;100253.94;;;15.92;58.36
72802;BME280;61891;55.818;37.084;2023-05-22T06:40:23;100260.97;;;15.93;58.21
72802;BME280;61891;55.818;37.084;2023-05-22T06:42:53;100265.66;;;15.91;57.78
72802;BME280;61891;55.818;37.084;2023-05-22T06:45:30;100261.13;;;15.91;58.30
72802;BME280;61891;55.818;37.084;2023-05-22T06:48:16;100265.78;;;15.97;58.93
72802;BME280;61891;55.818;37.084;2023-05-22T06:50:55;100258.09;;;15.94;58.02
72802;BME280;61891;55.818;37.084;2023-05-22T06:53:21;100231.44;;;15.86;58.61
72802;BME280;61891;55.818;37.084;2023-05-22T06:55:48;100259.53;;;16.05;59.24
72802;BME280;61891;55.818;37.084;2023-05-22T06:58:24;100251.31;;;16.06;59.31
72802;BME280;61891;55.818;37.084;2023-05-22T07:00:50;100244.41;;;16.12;59.13
72802;BME280;61891;55.818;37.084;2023-05-22T07:03:22;100255.97;;;16.27;59.28
72802;BME280;61891;55.818;37.084;2023-05-22T07:06:07;100255.06;;;16.35;59.09
72802;BME280;61891;55.818;37.084;2023-05-22T07:08:33;100242.41;;;16.29;59.18
72802;BME280;61891;55.818;37.084;2023-05-22T07:10:59;100246.03;;;16.36;58.37
72802;BME280;61891;55.818;37.084;2023-05-22T07:13:26;100250.63;;;16.27;58.73
72802;BME280;61891;55.818;37.084;2023-05-22T07:15:56;100258.91;;;16.18;58.59
72802;BME280;61891;55.818;37.084;2023-05-22T07:18:22;100260.66;;;16.10;58.58
72802;BME280;61891;55.818;37.084;2023-05-22T07:20:48;100256.31;;;16.09;59.74
72802;BME280;61891;55.818;37.084;2023-05-22T07:23:17;100249.84;;;16.04;60.25
72802;BME280;61891;55.818;37.084;2023-05-22T07:25:43;100261.47;;;16.11;60.46
72802;BME280;61891;55.818;37.084;2023-05-22T07:28:10;100246.50;;;16.02;59.95
72802;BME280;61891;55.818;37.084;2023-05-22T07:30:46;100262.50;;;16.10;60.84
72802;BME280;61891;55.818;37.084;2023-05-22T07:33:12;100271.34;;;16.10;60.41
72802;BME280;61891;55.818;37.084;2023-05-22T07:35:38;100283.94;;;16.02;60.39
72802;BME280;61891;55.818;37.084;2023-05-22T07:38:05;100272.13;;;15.96;59.59
72802;BME280;61891;55.818;37.084;2023-05-22T07:40:31;100278.78;;;16.00;60.97
72802;BME280;61891;55.818;37.084;2023-05-22T07:42:57;100263.84;;;16.06;60.62
72802;BME280;61891;55.818;37.084;2023-05-22T07:45:23;100269.69;;;16.09;61.04
72802;BME280;61891;55.818;37.084;2023-05-22T07:47:49;100269.50;;;16.11;60.29
72802;BME280;61891;55.818;37.084;2023-05-22T07:50:15;100276.69;;;16.10;61.42
72802;BME280;61891;55.818;37.084;2023-05-22T07:52:44;100275.31;;;16.15;61.23
72802;BME280;61891;55.818;37.084;2023-05-22T07:55:10;100277.81;;;16.16;61.71
72802;BME280;61891;55.818;37.084;2023-05-22T07:57:38;100265.16;;;16.10;60.72
72802;BME280;61891;55.818;37.084;2023-05-22T08:00:13;100281.97;;;16.19;61.04
72802;BME280;61891;55.818;37.084;2023-05-22T08:02:39;100286.97;;;16.22;61.62
72802;BME280;61891;55.818;37.084;2023-05-22T08:05:05;100259.81;;;16.10;61.35
72802;BME280;61891;55.818;37.084;2023-05-22T08:07:31;100282.19;;;16.32;62.07
72802;BME280;61891;55.818;37.084;2023-05-22T08:09:57;100260.94;;;16.16;61.56
72802;BME280;61891;55.818;37.084;2023-05-22T08:12:23;100282.19;;;16.32;61.90
72802;BME280;61891;55.818;37.084;2023-05-22T08:14:49;100280.28;;;16.40;61.33
72802;BME280;61891;55.818;37.084;2023-05-22T08:17:15;100287.75;;;16.45;62.28
72802;BME280;61891;55.818;37.084;2023-05-22T08:19:40;100273.22;;;16.25;61.24
72802;BME280;61891;55.818;37.084;2023-05-22T08:22:06;100286.91;;;16.44;61.66
72802;BME280;61891;55.818;37.084;2023-05-22T08:24:31;100277.31;;;16.50;62.48
72802;BME280;61891;55.818;37.084;2023-05-22T08:26:57;100274.56;;;16.58;62.47
72802;BME280;61891;55.818;37.084;2023-05-22T08:29:25;100286.88;;;16.67;62.39
72802;BME280;61891;55.818;37.084;2023-05-22T08:31:50;100283.88;;;16.48;61.60
72802;BME280;61891;55.818;37.084;2023-05-22T08:34:18;100291.91;;;16.48;61.97
72802;BME280;61891;55.818;37.084;2023-05-22T08:36:44;100285.06;;;16.45;62.61
72802;BME280;61891;55.818;37.084;2023-05-22T08:39:09;100285.34;;;16.50;63.06
72802;BME280;61891;55.818;37.084;2023-05-22T08:41:36;100271.69;;;16.45;63.02
72802;BME280;61891;55.818;37.084;2023-05-22T08:44:02;100296.53;;;16.54;63.18
72802;BME280;61891;55.818;37.084;2023-05-22T08:46:29;100300.69;;;16.56;61.93
72802;BME280;61891;55.818;37.084;2023-05-22T08:48:55;100287.94;;;16.58;62.62
72802;BME280;61891;55.818;37.084;2023-05-22T08:51:27;100284.47;;;16.72;63.22
72802;BME280;61891;55.818;37.084;2023-05-22T08:53:55;100261.03;;;16.74;63.17
72802;BME280;61891;55.818;37.084;2023-05-22T08:56:21;100269.91;;;16.90;63.11
72802;BME280;61891;55.818;37.084;2023-05-22T08:58:49;100271.84;;;16.96;62.95
72802;BME280;61891;55.818;37.084;2023-05-22T09:01:15;100268.22;;;17.03;64.01
72802;BME280;61891;55.818;37.084;2023-05-22T09:03:41;100247.09;;;16.94;62.74
72802;BME280;61891;55.818;37.084;2023-05-22T09:06:07;100235.44;;;16.87;62.40
72802;BME280;61891;55.818;37.084;2023-05-22T09:08:33;100241.00;;;16.85;62.97
72802;BME280;61891;55.818;37.084;2023-05-22T09:10:59;100251.91;;;16.84;62.77
72802;BME280;61891;55.818;37.084;2023-05-22T09:13:27;100261.97;;;16.82;63.43
72802;BME280;61891;55.818;37.084;2023-05-22T09:15:57;100274.41;;;16.89;63.18
72802;BME280;61891;55.818;37.084;2023-05-22T09:18:27;100251.91;;;16.84;63.59
72802;BME280;61891;55.818;37.084;2023-05-22T09:20:56;100276.00;;;16.98;63.67
72802;BME280;61891;55.818;37.084;2023-05-22T09:23:22;100286.16;;;17.03;63.53
72802;BME280;61891;55.818;37.084;2023-05-22T09:25:53;100287.53;;;16.99;62.35
72802;BME280;61891;55.818;37.084;2023-05-22T09:28:20;100287.25;;;16.94;62.74
72802;BME280;61891;55.818;37.084;2023-05-22T09:30:53;100284.56;;;16.94;63.50
72802;BME280;61891;55.818;37.084;2023-05-22T09:33:23;100253.28;;;16.80;63.06
72802;BME280;61891;55.818;37.084;2023-05-22T09:35:51;100269.06;;;16.89;63.18
72802;BME280;61891;55.818;37.084;2023-05-22T09:38:17;100270.72;;;17.05;63.16
72802;BME280;61891;55.818;37.084;2023-05-22T09:40:42;100276.13;;;17.26;62.81
72802;BME280;61891;55.818;37.084;2023-05-22T09:43:09;100261.94;;;17.47;62.99
72802;BME280;61891;55.818;37.084;2023-05-22T09:45:36;100257.19;;;17.64;62.45
72802;BME280;61891;55.818;37.084;2023-05-22T09:48:27;100267.09;;;17.85;63.25
72802;BME280;61891;55.818;37.084;2023-05-22T09:50:53;100253.00;;;17.97;61.89
72802;BME280;61891;55.818;37.084;2023-05-22T09:53:27;100253.53;;;18.14;61.95
72802;BME280;61891;55.818;37.084;2023-05-22T09:55:58;100254.00;;;18.18;61.99
72802;BME280;61891;55.818;37.084;2023-05-22T09:58:25;100267.56;;;18.38;61.65
72802;BME280;61891;55.818;37.084;2023-05-22T10:00:53;100246.47;;;18.34;61.59
72802;BME280;61891;55.818;37.084;2023-05-22T10:03:25;100266.19;;;18.48;61.29
72802;BME280;61891;55.818;37.084;2023-05-22T10:05:53;100263.47;;;18.42;60.51
72802;BME280;61891;55.818;37.084;2023-05-22T10:08:28;100259.69;;;18.36;60.74
72802;BME280;61891;55.818;37.084;2023-05-22T10:10:55;100241.50;;;18.31;60.42
72802;BME280;61891;55.818;37.084;2023-05-22T10:13:23;100227.69;;;18.34;60.61
72802;BME280;61891;55.818;37.084;2023-05-22T10:15:50;100260.94;;;18.61;60.93
72802;BME280;61891;55.818;37.084;2023-05-22T10:18:16;100253.81;;;18.82;60.58
72802;BME280;61891;55.818;37.084;2023-05-22T10:20:42;100255.78;;;19.01;60.61
72802;BME280;61891;55.818;37.084;2023-05-22T10:23:09;100238.09;;;19.20;59.79
72802;BME280;61891;55.818;37.084;2023-05-22T10:25:38;100234.19;;;19.36;59.63
72802;BME280;61891;55.818;37.084;2023-05-22T10:28:05;100244.63;;;19.58;58.87
72802;BME280;61891;55.818;37.084;2023-05-22T10:31:03;100239.50;;;19.83;58.74
72802;BME280;61891;55.818;37.084;2023-05-22T10:33:43;100232.47;;;20.09;58.46
72802;BME280;61891;55.818;37.084;2023-05-22T10:36:35;100239.31;;;20.44;58.05
72802;BME280;61891;55.818;37.084;2023-05-22T10:39:15;100218.97;;;20.62;57.29
72802;BME280;61891;55.818;37.084;2023-05-22T10:41:48;100240.47;;;20.88;56.74
72802;BME280;61891;55.818;37.084;2023-05-22T10:44:14;100244.75;;;21.09;56.59
72802;BME280;61891;55.818;37.084;2023-05-22T10:46:39;100232.44;;;21.33;56.15
72802;BME280;61891;55.818;37.084;2023-05-22T10:49:19;100205.53;;;21.58;55.52
72802;BME280;61891;55.818;37.084;2023-05-22T10:51:45;100229.34;;;22.24;54.88
72802;BME280;61891;55.818;37.084;2023-05-22T10:54:11;100230.38;;;22.66;53.91
72802;BME280;61891;55.818;37.084;2023-05-22T10:56:37;100234.34;;;23.18;53.36
72802;BME280;61891;55.818;37.084;2023-05-22T10:59:03;100234.00;;;23.74;52.06
72802;BME280;61891;55.818;37.084;2023-05-22T11:01:30;100219.13;;;24.19;51.44
72802;BME280;61891;55.818;37.084;2023-05-22T11:04:23;100218.50;;;24.87;49.60
72802;BME280;61891;55.818;37.084;2023-05-22T11:07:02;100237.91;;;25.47;48.84
72802;BME280;61891;55.818;37.084;2023-05-22T11:09:31;100232.16;;;25.89;48.38
72802;BME280;61891;55.818;37.084;2023-05-22T11:15:07;100230.59;;;26.60;46.27
72802;BME280;61891;55.818;37.084;2023-05-22T11:17:38;100225.41;;;26.97;46.30
72802;BME280;61891;55.818;37.084;2023-05-22T11:20:23;100227.78;;;27.37;44.87
72802;BME280;61891;55.818;37.084;2023-05-22T11:22:57;100225.22;;;27.79;44.31
72802;BME280;61891;55.818;37.084;2023-05-22T11:25:23;100225.75;;;28.45;44.33
72802;BME280;61891;55.818;37.084;2023-05-22T11:27:52;100181.56;;;28.48;43.20
72802;BME280;61891;55.818;37.084;2023-05-22T11:30:19;100206.16;;;29.11;42.84
72802;BME280;61891;55.818;37.084;2023-05-22T11:32:45;100217.34;;;29.04;42.74
72802;BME280;61891;55.818;37.084;2023-05-22T11:35:17;100226.16;;;28.69;42.30
72802;BME280;61891;55.818;37.084;2023-05-22T11:37:43;100219.28;;;28.19;42.84
72802;BME280;61891;55.818;37.084;2023-05-22T11:40:12;100206.09;;;27.47;43.27
72802;BME280;61891;55.818;37.084;2023-05-22T11:42:37;100195.19;;;27.47;43.31
72802;BME280;61891;55.818;37.084;2023-05-22T11:45:04;100215.09;;;26.99;43.90
72802;BME280;61891;55.818;37.084;2023-05-22T11:47:31;100200.41;;;26.40;44.16
72802;BME280;61891;55.818;37.084;2023-05-22T11:49:58;100205.03;;;26.06;44.88
72802;BME280;61891;55.818;37.084;2023-05-22T11:52:34;100199.66;;;26.27;44.38
72802;BME280;61891;55.818;37.084;2023-05-22T11:55:00;100196.69;;;26.46;44.53
72802;BME280;61891;55.818;37.084;2023-05-22T11:57:26;100196.84;;;26.22;44.58
72802;BME280;61891;55.818;37.084;2023-05-22T11:59:52;100192.88;;;25.80;44.79
72802;BME280;61891;55.818;37.084;2023-05-22T12:02:18;100193.88;;;25.90;45.05
72802;BME280;61891;55.818;37.084;2023-05-22T12:04:44;100178.91;;;25.88;44.88
72802;BME280;61891;55.818;37.084;2023-05-22T12:07:11;100205.66;;;25.79;44.58
72802;BME280;61891;55.818;37.084;2023-05-22T12:09:40;100199.25;;;25.57;45.02
72802;BME280;61891;55.818;37.084;2023-05-22T12:12:09;100202.81;;;25.29;45.27
72802;BME280;61891;55.818;37.084;2023-05-22T12:14:36;100192.16;;;25.39;45.61
72802;BME280;61891;55.818;37.084;2023-05-22T12:17:02;100167.44;;;25.24;45.16
72802;BME280;61891;55.818;37.084;2023-05-22T12:19:31;100173.88;;;25.06;45.34
72802;BME280;61891;55.818;37.084;2023-05-22T12:21:57;100182.75;;;25.30;45.66
72802;BME280;61891;55.818;37.084;2023-05-22T12:24:23;100175.09;;;25.27;45.29
72802;BME280;61891;55.818;37.084;2023-05-22T12:26:50;100169.13;;;25.42;44.98
72802;BME280;61891;55.818;37.084;2023-05-22T12:29:17;100177.41;;;25.97;43.79
72802;BME280;61891;55.818;37.084;2023-05-22T12:31:44;100175.88;;;26.01;43.68
72802;BME280;61891;55.818;37.084;2023-05-22T12:34:14;100168.38;;;26.08;43.77
72802;BME280;61891;55.818;37.084;2023-05-22T12:36:45;100168.44;;;26.13;43.71
72802;BME280;61891;55.818;37.084;2023-05-22T12:39:15;100157.31;;;26.31;43.06
72802;BME280;61891;55.818;37.084;2023-05-22T12:41:42;100160.22;;;27.07;42.69
72802;BME280;61891;55.818;37.084;2023-05-22T12:44:08;100152.31;;;27.33;42.38
72802;BME280;61891;55.818;37.084;2023-05-22T12:46:34;100158.97;;;27.47;42.38
72802;BME280;61891;55.818;37.084;2023-05-22T12:49:00;100162.38;;;27.32;41.72
72802;BME280;61891;55.818;37.084;2023-05-22T12:51:29;100155.13;;;27.16;42.00
72802;BME280;61891;55.818;37.084;2023-05-22T12:53:58;100158.50;;;27.01;42.34
72802;BME280;61891;55.818;37.084;2023-05-22T12:56:25;100149.38;;;26.47;43.03
72802;BME280;61891;55.818;37.084;2023-05-22T12:58:50;100140.44;;;25.96;43.22
72802;BME280;61891;55.818;37.084;2023-05-22T13:01:16;100139.22;;;25.70;43.88